Time;durP1;ratioP1;P1;durP2;ratioP2;P2;SDS_P1;SDS_P2;PMS_P1;PMS_P2;Temp;Humidity;BMP_temperature;BMP_pressure;BME280_temperature;BME280_humidity;BME280_pressure;Samples;Min_cycle;Max_cycle;Signal;HPM_P1;HPM_P2
2022/03/28 00:00:56;;;;;;;16.17;10.65;;;15.20;74.20;;;;;;5031746;28;20082;-73
2022/03/28 00:03:22;;;;;;;17.70;10.82;;;15.20;74.30;;;;;;5049712;28;20660;-72
2022/03/28 00:05:47;;;;;;;15.88;10.90;;;15.20;74.20;;;;;;5031918;28;20052;-72
2022/03/28 00:08:13;;;;;;;15.07;10.95;;;15.20;74.30;;;;;;5031623;28;20028;-74
2022/03/28 00:10:39;;;;;;;15.90;10.98;;;15.20;74.20;;;;;;5049804;28;20422;-74
2022/03/28 00:13:05;;;;;;;15.02;10.73;;;15.20;74.20;;;;;;5049579;28;20048;-73
2022/03/28 00:15:30;;;;;;;16.17;11.23;;;15.10;74.10;;;;;;5031575;28;20460;-76
2022/03/28 00:17:56;;;;;;;16.58;11.00;;;15.10;74.20;;;;;;5049184;28;20025;-73
2022/03/28 00:20:23;;;;;;;15.25;10.93;;;15.20;74.30;;;;;;5049181;28;20115;-74
2022/03/28 00:22:48;;;;;;;14.02;9.98;;;15.20;74.20;;;;;;5031459;28;20061;-73
2022/03/28 00:25:14;;;;;;;15.57;10.80;;;15.20;74.20;;;;;;5031264;28;20075;-73
2022/03/28 00:27:39;;;;;;;15.02;10.88;;;15.20;74.20;;;;;;5031028;28;20565;-72
2022/03/28 00:30:07;;;;;;;14.30;10.25;;;15.20;74.20;;;;;;5031157;28;20409;-75
2022/03/28 00:32:33;;;;;;;15.38;10.52;;;15.20;74.20;;;;;;5049206;28;20040;-73
2022/03/28 00:34:59;;;;;;;15.27;11.18;;;15.20;74.30;;;;;;5030174;28;20029;-74
2022/03/28 00:37:25;;;;;;;15.85;10.73;;;15.20;74.80;;;;;;5048235;28;20024;-72
2022/03/28 00:39:51;;;;;;;16.48;11.25;;;15.20;74.20;;;;;;5030899;28;20039;-74
2022/03/28 00:42:16;;;;;;;15.60;10.82;;;15.20;74.20;;;;;;5031154;28;20100;-72
2022/03/28 00:44:42;;;;;;;15.93;10.77;;;15.20;74.20;;;;;;5030806;28;20025;-72
2022/03/28 00:47:07;;;;;;;17.20;11.45;;;15.20;74.30;;;;;;5030534;28;20092;-72
2022/03/28 00:49:33;;;;;;;16.33;10.70;;;15.20;74.30;;;;;;5030693;28;20035;-73
2022/03/28 00:51:59;;;;;;;15.15;10.20;;;15.20;74.30;;;;;;5030914;28;20107;-72
2022/03/28 00:54:24;;;;;;;16.13;10.77;;;15.20;74.20;;;;;;5030772;28;20037;-74
2022/03/28 00:56:50;;;;;;;15.93;11.23;;;15.20;74.30;;;;;;5048350;28;20029;-72
2022/03/28 00:59:17;;;;;;;15.85;10.98;;;15.20;74.30;;;;;;5030281;28;20106;-73
2022/03/28 01:01:45;;;;;;;14.85;10.25;;;15.20;74.30;;;;;;5030739;28;20079;-73
2022/03/28 01:04:10;;;;;;;15.48;9.90;;;15.20;74.20;;;;;;5030302;28;20021;-72
2022/03/28 01:06:37;;;;;;;14.70;10.43;;;15.20;74.30;;;;;;5030205;28;20081;-72
2022/03/28 01:09:04;;;;;;;15.68;10.90;;;15.20;74.20;;;;;;5048502;28;20485;-73
2022/03/28 01:11:32;;;;;;;16.20;11.23;;;15.20;74.20;;;;;;5030712;28;20032;-72
2022/03/28 01:13:58;;;;;;;16.85;11.18;;;15.20;74.30;;;;;;5030338;28;20423;-74
2022/03/28 01:16:24;;;;;;;14.90;10.68;;;15.20;74.20;;;;;;5030025;28;20058;-74
2022/03/28 01:18:49;;;;;;;14.95;10.55;;;15.20;74.20;;;;;;5030113;28;20163;-72
2022/03/28 01:21:17;;;;;;;15.80;10.90;;;15.20;74.20;;;;;;5030468;28;20029;-73
2022/03/28 01:23:44;;;;;;;16.08;11.02;;;15.20;74.20;;;;;;5030041;28;20054;-73
2022/03/28 01:26:10;;;;;;;16.10;11.32;;;15.20;74.20;;;;;;5030191;28;20028;-74
2022/03/28 01:28:35;;;;;;;16.33;11.20;;;15.20;74.20;;;;;;5047598;28;20512;-72
2022/03/28 01:31:01;;;;;;;17.70;10.50;;;15.20;74.20;;;;;;5048182;28;20075;-74
2022/03/28 01:33:26;;;;;;;14.65;10.38;;;15.20;74.20;;;;;;5047935;28;20029;-72
2022/03/28 01:35:52;;;;;;;15.23;10.73;;;15.10;74.10;;;;;;5030237;28;20040;-73
2022/03/28 01:38:19;;;;;;;16.10;11.60;;;15.20;74.30;;;;;;5047294;28;20033;-73
2022/03/28 01:40:48;;;;;;;15.00;10.82;;;15.10;74.20;;;;;;5030297;28;20397;-72
2022/03/28 01:43:14;;;;;;;16.45;10.88;;;15.10;74.30;;;;;;5029812;28;20025;-73
2022/03/28 01:45:40;;;;;;;15.70;10.70;;;15.10;74.20;;;;;;5029941;28;20021;-72
2022/03/28 01:48:06;;;;;;;17.35;11.52;;;15.20;74.30;;;;;;5029717;28;20494;-75
2022/03/28 01:50:33;;;;;;;15.48;11.10;;;15.10;74.20;;;;;;5029980;28;20033;-72
2022/03/28 01:52:58;;;;;;;17.95;12.05;;;15.20;74.20;;;;;;5029331;28;20013;-74
2022/03/28 01:55:25;;;;;;;16.30;11.73;;;15.20;74.30;;;;;;5047522;28;20029;-71
2022/03/28 01:57:52;;;;;;;16.73;11.20;;;15.20;74.30;;;;;;5028487;28;20102;-73
2022/03/28 02:00:19;;;;;;;16.40;10.95;;;15.10;74.20;;;;;;5028400;28;20033;-73
2022/03/28 02:02:47;;;;;;;16.42;11.63;;;15.10;74.20;;;;;;5030136;28;20529;-74
2022/03/28 02:05:13;;;;;;;14.82;10.60;;;15.10;74.20;;;;;;5029517;28;20486;-73
2022/03/28 02:07:43;;;;;;;17.63;11.90;;;15.10;74.20;;;;;;5047261;28;20032;-72
2022/03/28 02:10:09;;;;;;;15.15;11.00;;;15.20;74.30;;;;;;5047000;28;20033;-75
2022/03/28 02:12:35;;;;;;;16.92;11.25;;;15.10;74.20;;;;;;5047587;28;20025;-73
2022/03/28 02:15:01;;;;;;;17.35;12.10;;;15.20;74.30;;;;;;5029572;28;20036;-72
2022/03/28 02:17:27;;;;;;;15.48;10.93;;;15.20;74.40;;;;;;5045611;28;20040;-72
2022/03/28 02:19:52;;;;;;;15.27;10.65;;;15.10;74.30;;;;;;5029319;28;20055;-76
2022/03/28 02:22:18;;;;;;;16.63;11.70;;;15.10;74.20;;;;;;5029837;28;20028;-73
2022/03/28 02:24:43;;;;;;;15.88;11.07;;;15.10;74.30;;;;;;5029351;28;20110;-74
2022/03/28 02:27:08;;;;;;;16.83;11.35;;;15.10;74.30;;;;;;5046892;28;20546;-74
2022/03/28 02:29:34;;;;;;;16.23;10.98;;;15.20;74.30;;;;;;5029693;28;20036;-74
2022/03/28 02:32:00;;;;;;;17.05;11.65;;;15.10;74.30;;;;;;5046802;28;20033;-73
2022/03/28 02:34:26;;;;;;;15.18;10.93;;;15.10;74.30;;;;;;5047395;28;20687;-73
2022/03/28 02:36:51;;;;;;;15.60;11.23;;;15.10;74.30;;;;;;5028754;28;20052;-73
2022/03/28 02:39:17;;;;;;;16.55;11.07;;;15.10;74.30;;;;;;5047269;28;20013;-73
2022/03/28 02:41:43;;;;;;;16.45;11.15;;;15.10;74.30;;;;;;5024292;28;20447;-72
2022/03/28 02:44:08;;;;;;;17.15;11.18;;;15.10;74.30;;;;;;5046746;28;20099;-72
2022/03/28 02:46:34;;;;;;;16.55;10.98;;;15.10;74.30;;;;;;5028528;28;20025;-76
2022/03/28 02:48:59;;;;;;;16.50;11.50;;;15.10;74.30;;;;;;5029444;28;20071;-72
2022/03/28 02:51:25;;;;;;;16.08;11.13;;;15.10;74.20;;;;;;5029029;28;20456;-76
2022/03/28 02:53:50;;;;;;;15.40;10.50;;;15.10;74.20;;;;;;5029141;28;20033;-72
2022/03/28 02:56:16;;;;;;;17.33;11.77;;;15.10;74.30;;;;;;5028944;28;20120;-73
2022/03/28 02:58:41;;;;;;;16.98;11.52;;;15.10;74.20;;;;;;5028725;28;20036;-73
2022/03/28 03:01:07;;;;;;;15.57;11.20;;;15.10;74.30;;;;;;5028728;28;20025;-73
2022/03/28 03:03:32;;;;;;;15.82;11.07;;;15.10;74.30;;;;;;5028774;28;20029;-71
2022/03/28 03:05:58;;;;;;;15.68;11.05;;;15.10;74.30;;;;;;5029115;28;20039;-72
2022/03/28 03:08:23;;;;;;;15.18;10.52;;;15.00;74.20;;;;;;5046597;28;20029;-76
2022/03/28 03:10:49;;;;;;;15.82;11.38;;;15.10;74.30;;;;;;5029164;28;20028;-72
2022/03/28 03:13:15;;;;;;;16.33;11.63;;;15.00;74.10;;;;;;5046897;28;20060;-74
2022/03/28 03:15:40;;;;;;;17.48;12.18;;;15.10;74.20;;;;;;5046499;28;20033;-75
2022/03/28 03:18:06;;;;;;;16.02;11.30;;;15.10;74.20;;;;;;5028417;28;20057;-73
2022/03/28 03:20:32;;;;;;;16.02;11.10;;;15.00;74.20;;;;;;5046542;28;20029;-72
2022/03/28 03:22:59;;;;;;;15.23;10.57;;;15.10;74.70;;;;;;5028927;28;20738;-72
2022/03/28 03:25:24;;;;;;;15.98;11.45;;;15.10;74.20;;;;;;5046983;28;20029;-72
2022/03/28 03:27:51;;;;;;;16.98;11.23;;;15.10;74.30;;;;;;5028876;28;20033;-72
2022/03/28 03:30:18;;;;;;;15.70;11.00;;;15.10;74.30;;;;;;5032290;28;20061;-74
2022/03/28 03:32:44;;;;;;;16.20;11.35;;;15.10;74.20;;;;;;5032151;28;20036;-76
2022/03/28 03:35:10;;;;;;;15.95;11.27;;;15.10;74.30;;;;;;5050268;28;20033;-73
2022/03/28 03:37:36;;;;;;;14.77;10.38;;;15.10;74.20;;;;;;5049953;28;20043;-72
2022/03/28 03:40:02;;;;;;;17.80;11.52;;;15.10;74.20;;;;;;5032234;28;20029;-73
2022/03/28 03:42:28;;;;;;;16.20;11.05;;;15.10;74.20;;;;;;5050224;28;20054;-75
2022/03/28 03:44:54;;;;;;;17.48;11.88;;;15.10;74.20;;;;;;5032297;28;20021;-74
2022/03/28 03:47:19;;;;;;;15.35;10.95;;;15.10;74.10;;;;;;5049415;28;20057;-73
2022/03/28 03:49:45;;;;;;;17.42;11.80;;;15.00;74.10;;;;;;5032336;28;20033;-71
2022/03/28 03:52:10;;;;;;;16.15;11.50;;;15.10;74.10;;;;;;5032176;28;20037;-75
2022/03/28 03:54:36;;;;;;;14.10;10.65;;;15.10;74.10;;;;;;5032193;28;20049;-73
2022/03/28 03:57:02;;;;;;;17.00;11.13;;;15.10;74.10;;;;;;5048311;28;20025;-73
2022/03/28 03:59:28;;;;;;;15.82;11.30;;;15.10;74.10;;;;;;5049503;28;20029;-73
2022/03/28 04:01:53;;;;;;;15.77;10.95;;;15.10;74.10;;;;;;5032199;28;20052;-74
2022/03/28 04:04:19;;;;;;;14.85;10.45;;;15.10;74.10;;;;;;5032197;28;20459;-73
2022/03/28 04:06:44;;;;;;;16.45;11.32;;;15.10;74.10;;;;;;5049533;28;20052;-73
2022/03/28 04:09:10;;;;;;;15.98;10.95;;;15.10;74.10;;;;;;5031554;28;20839;-73
2022/03/28 04:11:36;;;;;;;16.25;10.95;;;15.10;74.20;;;;;;5031738;28;20029;-72
2022/03/28 04:14:02;;;;;;;16.58;10.98;;;15.10;74.10;;;;;;5028499;28;20513;-72
2022/03/28 04:16:28;;;;;;;16.50;10.77;;;15.10;74.10;;;;;;5029635;28;20071;-73
2022/03/28 04:18:53;;;;;;;14.93;10.68;;;15.00;74.00;;;;;;5049551;28;20470;-76
2022/03/28 04:21:19;;;;;;;16.20;11.55;;;15.00;74.10;;;;;;5031554;28;20029;-72
2022/03/28 04:23:44;;;;;;;17.05;11.57;;;15.00;74.10;;;;;;5049532;28;20115;-72
2022/03/28 04:26:10;;;;;;;16.02;11.15;;;15.10;74.00;;;;;;5031414;28;20028;-72
2022/03/28 04:28:37;;;;;;;15.32;10.65;;;15.00;74.00;;;;;;5031497;28;20696;-73
2022/03/28 04:31:02;;;;;;;15.48;10.80;;;15.00;74.10;;;;;;5049403;28;20028;-73
2022/03/28 04:33:28;;;;;;;15.23;10.82;;;15.10;74.00;;;;;;5031224;28;20082;-76
2022/03/28 04:35:53;;;;;;;15.18;10.00;;;15.00;74.00;;;;;;5036990;28;20170;-72
2022/03/28 04:38:19;;;;;;;17.42;10.38;;;15.00;74.00;;;;;;5050695;28;20812;-73
2022/03/28 04:40:45;;;;;;;16.48;10.75;;;15.00;74.00;;;;;;5029491;28;20036;-72
2022/03/28 04:43:12;;;;;;;14.38;10.02;;;15.10;74.10;;;;;;5031052;28;20033;-73
2022/03/28 04:45:38;;;;;;;14.77;10.43;;;15.00;74.10;;;;;;5048996;28;20028;-73
2022/03/28 04:48:04;;;;;;;15.10;10.57;;;15.10;74.00;;;;;;5048804;28;20033;-73
2022/03/28 04:50:30;;;;;;;16.08;11.07;;;15.00;74.10;;;;;;5048752;28;20036;-73
2022/03/28 04:52:56;;;;;;;16.65;10.68;;;15.00;74.50;;;;;;5031267;28;20831;-73
2022/03/28 04:55:21;;;;;;;16.73;11.50;;;15.00;74.00;;;;;;5031298;28;20025;-75
2022/03/28 04:57:47;;;;;;;15.02;10.73;;;15.10;74.10;;;;;;5029397;28;20414;-73
2022/03/28 05:00:14;;;;;;;16.60;11.43;;;15.00;74.10;;;;;;5030598;28;20044;-72
2022/03/28 05:02:40;;;;;;;15.65;11.13;;;15.00;74.00;;;;;;5031357;28;20067;-73
2022/03/28 05:05:06;;;;;;;15.80;11.32;;;15.00;74.00;;;;;;5044395;28;20433;-73
2022/03/28 05:07:32;;;;;;;14.75;10.43;;;15.10;74.10;;;;;;5048879;28;20040;-73
2022/03/28 05:09:59;;;;;;;15.07;10.90;;;15.00;74.00;;;;;;5050952;28;20031;-73
2022/03/28 05:12:25;;;;;;;15.50;10.68;;;15.00;74.00;;;;;;5050797;28;20035;-73
2022/03/28 05:14:52;;;;;;;15.73;10.32;;;15.10;74.10;;;;;;5061843;28;20486;-73
2022/03/28 05:17:26;;;;;;;15.20;10.80;;;15.00;74.00;;;;;;5062208;28;20033;-75
2022/03/28 05:19:53;;;;;;;15.55;10.63;;;15.10;74.00;;;;;;5027214;28;20090;-73
2022/03/28 05:22:19;;;;;;;15.10;10.60;;;15.00;73.90;;;;;;5048321;28;20044;-76
2022/03/28 05:24:46;;;;;;;14.57;10.45;;;15.00;73.90;;;;;;5030433;28;20107;-74
2022/03/28 05:27:11;;;;;;;14.57;10.25;;;15.00;74.00;;;;;;5048409;28;20030;-73
2022/03/28 05:29:37;;;;;;;14.32;10.65;;;15.10;74.00;;;;;;5046203;28;20120;-74
2022/03/28 05:32:03;;;;;;;14.30;9.55;;;15.00;73.90;;;;;;5068625;28;20036;-76
2022/03/28 05:34:30;;;;;;;15.10;10.40;;;15.00;73.90;;;;;;5069434;28;20032;-73
2022/03/28 05:36:58;;;;;;;14.57;10.18;;;15.00;73.90;;;;;;5068819;28;20112;-73
2022/03/28 05:39:23;;;;;;;16.23;10.63;;;15.00;74.00;;;;;;5035266;28;20029;-74
2022/03/28 05:41:49;;;;;;;15.25;10.40;;;15.00;73.90;;;;;;5030736;28;20023;-74
2022/03/28 05:44:14;;;;;;;14.98;10.40;;;15.00;73.90;;;;;;5030898;28;20051;-72
2022/03/28 05:46:40;;;;;;;14.05;9.88;;;15.00;73.90;;;;;;5047043;28;20398;-73
2022/03/28 05:49:05;;;;;;;14.32;10.38;;;15.00;73.90;;;;;;5031209;28;20039;-72
2022/03/28 05:51:31;;;;;;;14.95;10.55;;;15.00;73.90;;;;;;5048218;28;20461;-73
2022/03/28 05:53:56;;;;;;;15.20;10.27;;;15.10;73.90;;;;;;5048118;28;20116;-73
2022/03/28 05:56:22;;;;;;;12.82;9.30;;;15.00;73.90;;;;;;5047513;28;20549;-73
2022/03/28 05:58:47;;;;;;;14.50;10.13;;;15.00;73.90;;;;;;5030551;28;20036;-74
2022/03/28 06:01:13;;;;;;;13.52;9.55;;;15.00;73.80;;;;;;5048330;28;20111;-74
2022/03/28 06:03:38;;;;;;;14.48;9.98;;;15.00;73.80;;;;;;5048938;28;20025;-74
2022/03/28 06:06:07;;;;;;;13.88;9.45;;;15.00;73.80;;;;;;5030899;28;20490;-73
2022/03/28 06:08:33;;;;;;;13.88;9.93;;;15.00;73.90;;;;;;5030212;28;20086;-73
2022/03/28 06:10:58;;;;;;;13.43;9.48;;;15.00;73.90;;;;;;5048412;28;20033;-73
2022/03/28 06:13:24;;;;;;;14.25;9.93;;;15.00;73.90;;;;;;5048199;28;20033;-73
2022/03/28 06:15:49;;;;;;;14.00;9.85;;;15.00;73.80;;;;;;5048242;28;20060;-74
2022/03/28 06:18:15;;;;;;;14.63;10.23;;;15.00;73.90;;;;;;5046830;28;20033;-73
2022/03/28 06:20:41;;;;;;;14.05;9.60;;;15.00;73.90;;;;;;5028590;28;20029;-74
2022/03/28 06:23:09;;;;;;;13.70;9.40;;;15.00;73.90;;;;;;5048927;28;20051;-73
2022/03/28 06:25:35;;;;;;;13.95;9.85;;;15.00;73.90;;;;;;5030657;28;20016;-73
2022/03/28 06:28:00;;;;;;;13.70;9.65;;;15.00;73.80;;;;;;5045285;28;20020;-73
2022/03/28 06:30:26;;;;;;;15.45;10.10;;;15.00;73.90;;;;;;5050946;28;20054;-73
2022/03/28 06:32:51;;;;;;;13.90;9.48;;;15.00;73.80;;;;;;5050989;28;20033;-73
2022/03/28 06:35:17;;;;;;;13.30;8.77;;;15.00;73.80;;;;;;5068763;28;20035;-72
2022/03/28 06:37:42;;;;;;;13.65;9.18;;;15.00;73.80;;;;;;5068280;28;20021;-74
2022/03/28 06:40:09;;;;;;;13.40;9.32;;;15.00;74.00;;;;;;5036355;28;20074;-74
2022/03/28 06:42:34;;;;;;;13.82;9.25;;;15.00;73.80;;;;;;5030274;28;20032;-73
2022/03/28 06:45:00;;;;;;;13.10;9.23;;;15.00;73.80;;;;;;5048257;28;20017;-72
2022/03/28 06:47:25;;;;;;;14.13;10.02;;;15.00;73.80;;;;;;5029611;28;20120;-73
2022/03/28 06:49:51;;;;;;;12.20;8.77;;;15.10;73.80;;;;;;5049258;28;20061;-72
2022/03/28 06:52:17;;;;;;;14.20;9.80;;;15.00;73.70;;;;;;5048899;28;20159;-74
2022/03/28 06:54:43;;;;;;;12.95;8.95;;;15.00;73.80;;;;;;5031423;28;20044;-73
2022/03/28 06:57:08;;;;;;;13.27;9.07;;;15.00;73.80;;;;;;5030745;28;20068;-72
2022/03/28 06:59:34;;;;;;;12.93;8.82;;;15.00;73.70;;;;;;5030884;28;20025;-73
2022/03/28 07:01:59;;;;;;;13.95;9.27;;;15.00;73.70;;;;;;5048951;28;20029;-78
2022/03/28 07:04:25;;;;;;;13.40;8.82;;;15.00;74.10;;;;;;5032959;28;20121;-71
2022/03/28 07:06:51;;;;;;;12.63;8.93;;;15.00;73.70;;;;;;5052327;28;20040;-76
2022/03/28 07:09:17;;;;;;;13.90;9.50;;;15.00;73.70;;;;;;5051462;28;20041;-73
2022/03/28 07:11:43;;;;;;;14.45;9.10;;;15.00;73.60;;;;;;5051233;28;20035;-77
2022/03/28 07:14:09;;;;;;;15.27;8.02;;;15.10;73.70;;;;;;5051315;28;20028;-73
2022/03/28 07:16:35;;;;;;;14.10;8.60;;;15.00;73.80;;;;;;5051161;28;20033;-74
2022/03/28 07:19:00;;;;;;;19.50;9.57;;;15.00;72.90;;;;;;5050105;28;20029;-73
2022/03/28 07:21:26;;;;;;;21.13;9.65;;;15.00;73.00;;;;;;5033633;28;20028;-74
2022/03/28 07:23:52;;;;;;;22.48;9.43;;;15.00;72.60;;;;;;5033435;28;20025;-73
2022/03/28 07:26:20;;;;;;;21.13;9.55;;;15.00;72.60;;;;;;5033361;28;20029;-75
2022/03/28 07:28:45;;;;;;;17.92;9.50;;;15.00;72.70;;;;;;5033157;28;20045;-73
2022/03/28 07:31:11;;;;;;;19.45;8.90;;;15.00;73.10;;;;;;5051286;28;20036;-77
2022/03/28 07:33:43;;;;;;;17.27;9.32;;;15.00;72.80;;;;;;5051103;28;20041;-75
2022/03/28 07:36:08;;;;;;;;;;;15.00;72.90;;;;;;5033539;28;20028;-73
2022/03/28 07:38:35;;;;;;;18.70;9.20;;;15.00;72.90;;;;;;5050426;28;20243;-76
2022/03/28 07:41:02;;;;;;;16.70;8.55;;;15.00;72.90;;;;;;5032899;28;20017;-72
2022/03/28 07:43:27;;;;;;;21.70;8.65;;;15.00;73.50;;;;;;5032989;28;20032;-76
2022/03/28 07:45:54;;;;;;;17.00;9.25;;;15.00;73.00;;;;;;5033054;28;20386;-74
2022/03/28 07:48:23;;;;;;;18.17;9.95;;;15.00;73.00;;;;;;5032612;28;20021;-78
2022/03/28 07:50:49;;;;;;;16.05;8.50;;;15.00;73.10;;;;;;5032374;28;20021;-72
2022/03/28 07:53:15;;;;;;;15.82;8.43;;;15.10;73.10;;;;;;5031559;28;20368;-72
2022/03/28 07:55:42;;;;;;;15.85;8.57;;;15.00;73.10;;;;;;5047674;28;20154;-77
2022/03/28 07:58:08;;;;;;;17.05;8.90;;;15.10;73.20;;;;;;5045393;28;20009;-73
2022/03/28 08:00:35;;;;;;;15.27;8.57;;;15.00;73.20;;;;;;5029962;28;20040;-73
2022/03/28 08:03:01;;;;;;;13.23;8.57;;;15.00;73.20;;;;;;5030051;28;20025;-73
2022/03/28 08:05:27;;;;;;;16.45;9.15;;;15.00;73.30;;;;;;5047875;28;20390;-77
2022/03/28 08:07:54;;;;;;;16.38;8.40;;;15.00;73.30;;;;;;5029669;28;20033;-73
2022/03/28 08:10:21;;;;;;;15.23;8.68;;;15.00;73.30;;;;;;5029585;28;20025;-74
2022/03/28 08:12:48;;;;;;;16.02;9.23;;;15.00;73.40;;;;;;5029839;28;20043;-72
2022/03/28 08:15:15;;;;;;;16.38;8.80;;;15.10;73.60;;;;;;5046239;28;20584;-73
2022/03/28 08:17:41;;;;;;;13.50;7.75;;;15.10;73.60;;;;;;5029310;28;20111;-74
2022/03/28 08:20:09;;;;;;;17.55;8.50;;;15.10;73.60;;;;;;5044996;28;20149;-72
2022/03/28 08:22:41;;;;;;;14.02;8.35;;;15.10;73.40;;;;;;5029581;28;20059;-71
2022/03/28 08:25:07;;;;;;;13.35;8.30;;;15.10;73.70;;;;;;5048268;28;20111;-72
2022/03/28 08:27:33;;;;;;;14.07;8.48;;;15.10;73.50;;;;;;5047496;28;20025;-71
2022/03/28 08:29:59;;;;;;;17.30;8.95;;;15.10;73.60;;;;;;5029873;28;20102;-74
2022/03/28 08:32:24;;;;;;;13.80;8.10;;;15.00;73.60;;;;;;5047621;28;20706;-71
2022/03/28 08:34:50;;;;;;;18.10;7.95;;;15.10;73.60;;;;;;5029614;28;20074;-76
2022/03/28 08:37:16;;;;;;;14.48;8.48;;;15.10;73.60;;;;;;5047215;28;20086;-74
2022/03/28 08:39:43;;;;;;;12.85;7.63;;;15.10;73.70;;;;;;5029828;28;20591;-72
2022/03/28 08:42:11;;;;;;;12.70;8.43;;;15.10;73.50;;;;;;5026779;28;20024;-75
2022/03/28 08:44:38;;;;;;;13.65;8.27;;;15.10;73.60;;;;;;5030035;28;20031;-73
2022/03/28 08:47:04;;;;;;;12.90;8.35;;;15.10;73.60;;;;;;5029336;28;20179;-72
2022/03/28 08:49:30;;;;;;;13.02;8.25;;;15.10;73.50;;;;;;5047236;28;20132;-73
2022/03/28 08:51:55;;;;;;;13.40;7.78;;;15.10;73.60;;;;;;5047116;28;20074;-72
2022/03/28 08:54:21;;;;;;;12.70;8.40;;;15.10;73.60;;;;;;5047015;28;20116;-73
2022/03/28 08:56:47;;;;;;;13.70;8.02;;;15.10;73.60;;;;;;5046856;28;20110;-75
2022/03/28 08:59:13;;;;;;;15.43;8.65;;;15.10;73.60;;;;;;5028806;28;20027;-72
2022/03/28 09:01:39;;;;;;;12.73;7.43;;;15.10;73.70;;;;;;5046837;28;20031;-76
2022/03/28 09:04:09;;;;;;;12.82;8.20;;;15.10;73.70;;;;;;5046721;28;20498;-72
2022/03/28 09:06:37;;;;;;;13.45;8.52;;;15.10;73.50;;;;;;5046623;28;20509;-72
2022/03/28 09:09:24;;;;;;;12.45;8.02;;;15.10;73.50;;;;;;5028967;28;20037;-72
2022/03/28 09:11:58;;;;;;;13.27;8.27;;;15.10;73.60;;;;;;5044585;28;20082;-72
2022/03/28 09:14:27;;;;;;;13.07;7.90;;;15.10;73.50;;;;;;5046709;28;20029;-73
2022/03/28 09:17:16;;;;;;;13.73;7.97;;;15.10;73.60;;;;;;5028340;28;20025;-78
2022/03/28 09:19:54;;;;;;;12.52;8.10;;;15.10;73.50;;;;;;5027956;28;20036;-77
2022/03/28 09:22:30;;;;;;;12.00;7.50;;;15.20;73.60;;;;;;5045688;28;20021;-72
2022/03/28 09:25:01;;;;;;;15.98;7.85;;;15.20;73.40;;;;;;5027411;28;20456;-72
2022/03/28 09:27:29;;;;;;;12.32;7.85;;;15.30;73.30;;;;;;5028217;28;20025;-73
2022/03/28 09:30:08;;;;;;;12.60;7.97;;;15.30;73.10;;;;;;5028567;28;20025;-74
2022/03/28 09:32:44;;;;;;;12.57;7.53;;;15.40;73.10;;;;;;5026571;28;20029;-72
2022/03/28 09:35:21;;;;;;;11.07;7.32;;;15.40;72.90;;;;;;5044096;28;20064;-72
2022/03/28 09:38:02;;;;;;;12.75;8.02;;;15.50;72.80;;;;;;5046354;28;20574;-73
2022/03/28 09:40:29;;;;;;;10.45;6.97;;;15.60;72.70;;;;;;5047974;28;20095;-73
2022/03/28 09:42:56;;;;;;;11.65;7.15;;;15.60;72.60;;;;;;5047994;28;20102;-77
2022/03/28 09:45:24;;;;;;;10.50;7.00;;;15.60;72.40;;;;;;5030250;28;20120;-72
2022/03/28 09:48:01;;;;;;;10.57;7.00;;;15.70;72.30;;;;;;5029534;28;20626;-72
2022/03/28 09:50:29;;;;;;;13.07;7.40;;;15.70;72.20;;;;;;5047997;28;20044;-77
2022/03/28 09:52:54;;;;;;;13.52;7.10;;;15.70;72.10;;;;;;5048109;28;20029;-73
2022/03/28 09:55:20;;;;;;;12.05;7.43;;;15.80;72.10;;;;;;5047692;28;20037;-74
2022/03/28 09:57:45;;;;;;;11.20;6.70;;;15.80;72.00;;;;;;5047675;28;20106;-72
2022/03/28 10:00:19;;;;;;;11.80;7.45;;;15.80;71.90;;;;;;5045740;28;20037;-76
2022/03/28 10:02:46;;;;;;;12.30;7.03;;;15.90;71.80;;;;;;5027130;28;20032;-72
2022/03/28 10:05:12;;;;;;;12.73;7.00;;;15.80;71.80;;;;;;5027156;28;20406;-72
2022/03/28 10:07:38;;;;;;;17.55;7.90;;;15.80;71.70;;;;;;5047118;28;20060;-72
2022/03/28 10:10:05;;;;;;;13.88;6.85;;;15.90;71.60;;;;;;5048307;28;20451;-73
2022/03/28 10:12:30;;;;;;;24.30;8.80;;;15.90;71.70;;;;;;5046321;28;20505;-74
2022/03/28 10:14:58;;;;;;;25.63;8.13;;;15.90;71.30;;;;;;5027669;28;20037;-74
2022/03/28 10:17:28;;;;;;;21.02;8.30;;;16.00;71.20;;;;;;5045090;28;20025;-75
2022/03/28 10:19:53;;;;;;;20.30;8.00;;;16.00;71.20;;;;;;5027564;28;20053;-74
2022/03/28 10:22:26;;;;;;;16.25;7.93;;;16.00;71.80;;;;;;5045394;28;20033;-72
2022/03/28 10:24:53;;;;;;;18.48;7.57;;;16.00;72.60;;;;;;5045234;28;20025;-76
2022/03/28 10:27:19;;;;;;;19.17;8.10;;;16.00;71.70;;;;;;5026965;28;20025;-73
2022/03/28 10:29:45;;;;;;;24.75;7.55;;;16.10;73.30;;;;;;5027308;28;20114;-72
2022/03/28 10:32:16;;;;;;;16.17;7.90;;;16.10;74.60;;;;;;5045414;28;20028;-72
2022/03/28 10:34:52;;;;;;;18.00;7.35;;;16.10;74.30;;;;;;5027438;28;20061;-73
2022/03/28 10:37:38;;;;;;;18.50;7.80;;;16.10;76.10;;;;;;5026871;28;20047;-71
2022/03/28 10:40:29;;;;;;;14.35;6.90;;;16.20;76.70;;;;;;5030991;28;20091;-71
2022/03/28 10:43:12;;;;;;;12.98;6.57;;;16.20;76.60;;;;;;5049473;28;20024;-76
2022/03/28 10:45:38;;;;;;;17.63;7.18;;;16.20;76.60;;;;;;5030949;28;20108;-72
2022/03/28 10:48:06;;;;;;;17.33;8.00;;;16.30;77.00;;;;;;5030668;28;20079;-71
2022/03/28 10:50:43;;;;;;;15.63;7.00;;;16.30;76.80;;;;;;5048940;28;20035;-72
2022/03/28 10:53:30;;;;;;;14.57;7.28;;;16.40;76.90;;;;;;5049507;28;20471;-74
2022/03/28 10:56:06;;;;;;;13.82;6.80;;;16.40;77.20;;;;;;5049882;28;20474;-72
2022/03/28 10:58:49;;;;;;;19.05;7.25;;;16.50;77.10;;;;;;5048973;28;20037;-72
2022/03/28 11:01:28;;;;;;;18.58;7.28;;;16.60;78.40;;;;;;5031648;28;20117;-73
2022/03/28 11:04:02;;;;;;;14.60;7.10;;;16.70;79.10;;;;;;5032892;28;20021;-71
2022/03/28 11:07:00;;;;;;;19.65;7.38;;;16.80;79.60;;;;;;5048803;28;20052;-73
2022/03/28 11:09:45;;;;;;;20.90;7.55;;;16.80;79.40;;;;;;5049106;28;20033;-73
2022/03/28 11:12:26;;;;;;;20.50;7.75;;;16.90;79.90;;;;;;5030888;28;20533;-75
2022/03/28 11:14:51;;;;;;;20.13;7.72;;;17.00;80.00;;;;;;5032815;28;20119;-74
2022/03/28 11:17:23;;;;;;;33.47;8.65;;;17.00;79.70;;;;;;5030513;28;20541;-72
2022/03/28 11:19:51;;;;;;;31.70;9.55;;;17.00;79.70;;;;;;5031007;28;20506;-77
2022/03/28 11:22:17;;;;;;;27.40;9.13;;;17.10;79.60;;;;;;5048715;28;20044;-75
2022/03/28 11:24:45;;;;;;;25.05;8.27;;;17.10;79.50;;;;;;5030711;28;20025;-73
2022/03/28 11:27:14;;;;;;;26.02;8.70;;;17.10;79.00;;;;;;5048231;28;20025;-78
2022/03/28 11:29:40;;;;;;;26.20;7.93;;;17.20;78.60;;;;;;5048763;28;20029;-72
2022/03/28 11:32:06;;;;;;;29.63;8.65;;;17.20;78.40;;;;;;5030511;28;20037;-72
2022/03/28 11:34:32;;;;;;;27.35;8.23;;;17.30;78.20;;;;;;5048528;28;20036;-73
2022/03/28 11:36:58;;;;;;;25.33;8.15;;;17.30;78.50;;;;;;5048015;28;20028;-73
2022/03/28 11:39:26;;;;;;;23.58;7.72;;;17.20;78.00;;;;;;5030663;28;20037;-75
2022/03/28 11:41:53;;;;;;;26.42;7.60;;;17.20;78.00;;;;;;5030892;28;20462;-73
2022/03/28 11:44:18;;;;;;;25.77;8.02;;;17.10;78.10;;;;;;5030515;28;20118;-72
2022/03/28 11:46:53;;;;;;;25.70;7.88;;;17.10;78.00;;;;;;5049262;28;20144;-73
2022/03/28 11:49:19;;;;;;;21.98;7.50;;;17.10;78.00;;;;;;5032306;28;20032;-74
2022/03/28 11:51:45;;;;;;;20.70;7.95;;;17.10;77.90;;;;;;5026050;28;20562;-72
2022/03/28 11:54:19;;;;;;;22.15;8.30;;;17.10;77.70;;;;;;5030710;28;20025;-74
2022/03/28 11:59:41;;;;;;;28.00;8.65;;;17.10;77.50;;;;;;5049585;28;20040;-74
2022/03/28 12:02:08;;;;;;;20.23;7.30;;;17.10;77.40;;;;;;5049117;28;20516;-72
2022/03/28 12:04:33;;;;;;;19.20;7.55;;;17.10;77.40;;;;;;5028692;28;20048;-76
2022/03/28 12:06:59;;;;;;;21.45;7.55;;;17.10;77.30;;;;;;5053806;28;20464;-74
2022/03/28 12:09:25;;;;;;;16.77;6.55;;;17.10;77.20;;;;;;5034796;28;20040;-73
2022/03/28 12:11:55;;;;;;;19.63;7.82;;;17.10;77.10;;;;;;5050706;28;20029;-76
2022/03/28 12:14:22;;;;;;;25.50;8.20;;;17.00;76.80;;;;;;5060598;28;20025;-72
2022/03/28 12:16:56;;;;;;;37.63;9.90;;;17.00;76.70;;;;;;5048738;28;20029;-75
2022/03/28 12:19:24;;;;;;;31.35;9.02;;;17.00;75.40;;;;;;5035408;28;20037;-74
2022/03/28 12:21:52;;;;;;;24.73;9.02;;;17.00;75.00;;;;;;5049547;28;20411;-80
2022/03/28 12:24:20;;;;;;;28.55;9.70;;;17.10;74.80;;;;;;5040790;28;20039;-74
2022/03/28 12:26:48;;;;;;;27.73;8.60;;;17.10;74.70;;;;;;5033715;28;20025;-74
2022/03/28 12:29:14;;;;;;;33.40;9.52;;;17.10;74.70;;;;;;5020195;28;20087;-72
2022/03/28 12:31:49;;;;;;;30.52;8.70;;;17.10;74.80;;;;;;5060489;28;20059;-73
2022/03/28 12:34:17;;;;;;;28.23;8.32;;;17.00;74.70;;;;;;5047243;28;20037;-74
2022/03/28 12:36:42;;;;;;;29.77;8.43;;;17.00;74.70;;;;;;5048862;28;20083;-74